sensor_id;sensor_type;location;lat;lon;timestamp;pressure;altitude;pressure_sealevel;temperature;humidity
29461;BME280;16428;47.836;35.106;2022-09-09T00:02:27;101653.47;;;16.28;95.56
29461;BME280;16428;47.836;35.106;2022-09-09T00:05:17;101659.88;;;16.42;96.19
29461;BME280;16428;47.836;35.106;2022-09-09T00:07:52;101661.66;;;16.35;97.10
29461;BME280;16428;47.836;35.106;2022-09-09T00:10:38;101663.47;;;16.28;97.29
29461;BME280;16428;47.836;35.106;2022-09-09T00:13:28;101665.28;;;16.06;98.86
29461;BME280;16428;47.836;35.106;2022-09-09T00:16:22;101666.72;;;16.02;98.25
29461;BME280;16428;47.836;35.106;2022-09-09T00:19:06;101663.25;;;15.93;98.79
29461;BME280;16428;47.836;35.106;2022-09-09T00:21:38;101666.75;;;15.87;99.34
29461;BME280;16428;47.836;35.106;2022-09-09T00:24:29;101672.53;;;15.84;99.96
29461;BME280;16428;47.836;35.106;2022-09-09T00:29:43;101670.75;;;15.91;99.47
29461;BME280;16428;47.836;35.106;2022-09-09T00:32:20;101665.91;;;15.87;99.81
29461;BME280;16428;47.836;35.106;2022-09-09T00:34:53;101665.81;;;15.80;100.00
29461;BME280;16428;47.836;35.106;2022-09-09T00:37:25;101658.34;;;15.82;100.00
29461;BME280;16428;47.836;35.106;2022-09-09T00:39:59;101655.25;;;15.85;100.00
29461;BME280;16428;47.836;35.106;2022-09-09T00:42:43;101645.34;;;15.77;100.00
29461;BME280;16428;47.836;35.106;2022-09-09T00:48:12;101649.38;;;15.67;100.00
29461;BME280;16428;47.836;35.106;2022-09-09T00:51:02;101650.53;;;15.58;100.00
29461;BME280;16428;47.836;35.106;2022-09-09T00:57:30;101655.44;;;15.54;100.00
29461;BME280;16428;47.836;35.106;2022-09-09T01:05:54;101655.06;;;15.42;100.00
29461;BME280;16428;47.836;35.106;2022-09-09T01:08:42;101654.44;;;15.55;100.00
29461;BME280;16428;47.836;35.106;2022-09-09T01:11:21;101653.56;;;15.55;100.00
29461;BME280;16428;47.836;35.106;2022-09-09T01:14:01;101653.94;;;15.52;100.00
29461;BME280;16428;47.836;35.106;2022-09-09T01:16:33;101660.84;;;15.54;100.00
29461;BME280;16428;47.836;35.106;2022-09-09T01:19:09;101649.91;;;15.47;100.00
29461;BME280;16428;47.836;35.106;2022-09-09T01:25:27;101653.75;;;15.38;100.00
29461;BME280;16428;47.836;35.106;2022-09-09T01:28:00;101659.88;;;15.32;100.00
29461;BME280;16428;47.836;35.106;2022-09-09T01:30:33;101660.81;;;15.25;100.00
29461;BME280;16428;47.836;35.106;2022-09-09T01:33:13;101663.69;;;15.08;100.00
29461;BME280;16428;47.836;35.106;2022-09-09T01:35:59;101658.31;;;15.00;100.00
29461;BME280;16428;47.836;35.106;2022-09-09T01:38:34;101665.06;;;15.04;100.00
29461;BME280;16428;47.836;35.106;2022-09-09T01:41:05;101667.38;;;14.93;100.00
29461;BME280;16428;47.836;35.106;2022-09-09T01:43:33;101668.56;;;14.90;100.00
29461;BME280;16428;47.836;35.106;2022-09-09T01:46:04;101671.41;;;14.97;100.00
29461;BME280;16428;47.836;35.106;2022-09-09T01:48:36;101676.38;;;15.08;100.00
29461;BME280;16428;47.836;35.106;2022-09-09T01:51:04;101675.72;;;15.06;100.00
29461;BME280;16428;47.836;35.106;2022-09-09T01:53:36;101685.41;;;15.15;100.00
29461;BME280;16428;47.836;35.106;2022-09-09T02:04:52;101682.84;;;14.99;100.00
29461;BME280;16428;47.836;35.106;2022-09-09T02:07:42;101685.06;;;14.81;100.00
29461;BME280;16428;47.836;35.106;2022-09-09T02:10:24;101688.13;;;14.77;100.00
29461;BME280;16428;47.836;35.106;2022-09-09T02:13:09;101685.84;;;14.66;100.00
29461;BME280;16428;47.836;35.106;2022-09-09T02:18:24;101681.25;;;14.44;100.00
29461;BME280;16428;47.836;35.106;2022-09-09T02:20:56;101686.00;;;14.42;100.00
29461;BME280;16428;47.836;35.106;2022-09-09T02:23:28;101686.00;;;14.42;100.00
29461;BME280;16428;47.836;35.106;2022-09-09T02:25:58;101678.91;;;14.41;100.00
29461;BME280;16428;47.836;35.106;2022-09-09T02:28:31;101682.47;;;14.33;100.00
29461;BME280;16428;47.836;35.106;2022-09-09T02:31:01;101684.50;;;14.31;100.00
29461;BME280;16428;47.836;35.106;2022-09-09T02:33:35;101685.34;;;14.32;100.00
29461;BME280;16428;47.836;35.106;2022-09-09T02:36:08;101686.69;;;14.36;100.00
29461;BME280;16428;47.836;35.106;2022-09-09T02:38:45;101691.78;;;14.31;100.00
29461;BME280;16428;47.836;35.106;2022-09-09T02:41:33;101689.44;;;14.28;100.00
29461;BME280;16428;47.836;35.106;2022-09-09T02:44:16;101694.69;;;14.21;100.00
29461;BME280;16428;47.836;35.106;2022-09-09T02:50:27;101705.50;;;14.21;100.00
29461;BME280;16428;47.836;35.106;2022-09-09T02:55:48;101715.25;;;14.30;100.00
29461;BME280;16428;47.836;35.106;2022-09-09T02:58:21;101711.06;;;14.28;100.00
29461;BME280;16428;47.836;35.106;2022-09-09T03:00:51;101712.72;;;14.29;100.00
29461;BME280;16428;47.836;35.106;2022-09-09T03:03:19;101715.44;;;14.29;100.00
29461;BME280;16428;47.836;35.106;2022-09-09T03:05:50;101712.72;;;14.29;100.00
29461;BME280;16428;47.836;35.106;2022-09-09T03:08:19;101724.88;;;14.33;100.00
29461;BME280;16428;47.836;35.106;2022-09-09T03:10:47;101718.28;;;14.35;100.00
29461;BME280;16428;47.836;35.106;2022-09-09T03:13:16;101728.25;;;14.35;100.00
29461;BME280;16428;47.836;35.106;2022-09-09T03:15:49;101726.84;;;14.39;100.00
29461;BME280;16428;47.836;35.106;2022-09-09T03:18:18;101733.66;;;14.35;100.00
29461;BME280;16428;47.836;35.106;2022-09-09T03:20:46;101733.34;;;14.30;100.00
29461;BME280;16428;47.836;35.106;2022-09-09T03:23:18;101730.31;;;14.25;100.00
29461;BME280;16428;47.836;35.106;2022-09-09T03:25:49;101736.06;;;14.22;100.00
29461;BME280;16428;47.836;35.106;2022-09-09T03:28:19;101735.72;;;14.25;100.00
29461;BME280;16428;47.836;35.106;2022-09-09T03:30:49;101735.88;;;14.23;100.00
29461;BME280;16428;47.836;35.106;2022-09-09T03:33:17;101742.47;;;14.21;100.00
29461;BME280;16428;47.836;35.106;2022-09-09T03:35:46;101737.09;;;14.21;100.00
29461;BME280;16428;47.836;35.106;2022-09-09T03:38:18;101745.19;;;14.21;100.00
29461;BME280;16428;47.836;35.106;2022-09-09T03:40:51;101739.09;;;14.27;100.00
29461;BME280;16428;47.836;35.106;2022-09-09T03:43:26;101735.72;;;14.25;100.00
29461;BME280;16428;47.836;35.106;2022-09-09T03:45:55;101738.41;;;14.25;100.00
29461;BME280;16428;47.836;35.106;2022-09-09T03:48:26;101736.03;;;14.30;100.00
29461;BME280;16428;47.836;35.106;2022-09-09T03:50:56;101734.84;;;14.32;100.00
29461;BME280;16428;47.836;35.106;2022-09-09T03:53:27;101733.00;;;14.33;100.00
29461;BME280;16428;47.836;35.106;2022-09-09T03:55:56;101730.47;;;14.31;100.00
29461;BME280;16428;47.836;35.106;2022-09-09T03:58:30;101723.38;;;14.30;100.00
29461;BME280;16428;47.836;35.106;2022-09-09T04:01:00;101734.34;;;14.29;100.00
29461;BME280;16428;47.836;35.106;2022-09-09T04:03:29;101726.91;;;14.31;100.00
29461;BME280;16428;47.836;35.106;2022-09-09T04:06:00;101734.69;;;14.26;100.00
29461;BME280;16428;47.836;35.106;2022-09-09T04:08:30;101738.59;;;14.23;100.00
29461;BME280;16428;47.836;35.106;2022-09-09T04:11:04;101739.94;;;14.27;100.00
29461;BME280;16428;47.836;35.106;2022-09-09T04:13:36;101743.47;;;14.36;100.00
29461;BME280;16428;47.836;35.106;2022-09-09T04:16:09;101744.81;;;14.40;100.00
29461;BME280;16428;47.836;35.106;2022-09-09T04:18:41;101742.34;;;14.53;100.00
29461;BME280;16428;47.836;35.106;2022-09-09T04:21:11;101740.31;;;14.55;100.00
29461;BME280;16428;47.836;35.106;2022-09-09T04:23:40;101743.34;;;14.60;100.00
29461;BME280;16428;47.836;35.106;2022-09-09T04:26:09;101748.06;;;14.66;100.00
29461;BME280;16428;47.836;35.106;2022-09-09T04:28:37;101760.31;;;14.77;100.00
29461;BME280;16428;47.836;35.106;2022-09-09T04:31:20;101748.66;;;14.76;99.00
29461;BME280;16428;47.836;35.106;2022-09-09T04:33:51;101753.03;;;14.77;97.99
29461;BME280;16428;47.836;35.106;2022-09-09T04:36:20;101758.38;;;14.86;97.04
29461;BME280;16428;47.836;35.106;2022-09-09T04:38:50;101758.63;;;14.99;95.48
29461;BME280;16428;47.836;35.106;2022-09-09T04:41:18;101756.72;;;15.07;95.42
29461;BME280;16428;47.836;35.106;2022-09-09T04:43:46;101767.28;;;15.17;92.67
29461;BME280;16428;47.836;35.106;2022-09-09T04:46:15;101764.44;;;15.33;91.72
29461;BME280;16428;47.836;35.106;2022-09-09T04:48:46;101765.81;;;15.29;91.57
29461;BME280;16428;47.836;35.106;2022-09-09T04:51:15;101765.09;;;15.35;91.09
29461;BME280;16428;47.836;35.106;2022-09-09T04:53:48;101762.31;;;15.43;91.48
29461;BME280;16428;47.836;35.106;2022-09-09T04:56:19;101762.97;;;15.45;91.94
29461;BME280;16428;47.836;35.106;2022-09-09T04:58:51;101753.91;;;15.38;91.96
29461;BME280;16428;47.836;35.106;2022-09-09T05:01:20;101758.69;;;15.51;92.52
29461;BME280;16428;47.836;35.106;2022-09-09T05:03:54;101759.19;;;15.55;92.04
29461;BME280;16428;47.836;35.106;2022-09-09T05:06:24;101758.66;;;15.36;91.25
29461;BME280;16428;47.836;35.106;2022-09-09T05:08:54;101754.84;;;15.45;91.15
29461;BME280;16428;47.836;35.106;2022-09-09T05:11:31;101756.81;;;15.52;92.42
29461;BME280;16428;47.836;35.106;2022-09-09T05:14:00;101754.00;;;15.68;91.30
29461;BME280;16428;47.836;35.106;2022-09-09T05:16:30;101759.22;;;15.69;89.81
29461;BME280;16428;47.836;35.106;2022-09-09T05:18:58;101754.19;;;15.81;89.42
29461;BME280;16428;47.836;35.106;2022-09-09T05:21:30;101759.97;;;15.93;89.26
29461;BME280;16428;47.836;35.106;2022-09-09T05:24:04;101762.13;;;15.97;88.70
29461;BME280;16428;47.836;35.106;2022-09-09T05:26:37;101761.09;;;16.13;87.54
29461;BME280;16428;47.836;35.106;2022-09-09T05:29:13;101752.31;;;16.26;87.16
29461;BME280;16428;47.836;35.106;2022-09-09T05:31:49;101752.59;;;16.31;86.66
29461;BME280;16428;47.836;35.106;2022-09-09T05:34:18;101749.22;;;16.29;86.58
29461;BME280;16428;47.836;35.106;2022-09-09T05:36:48;101760.88;;;16.44;86.56
29461;BME280;16428;47.836;35.106;2022-09-09T05:39:19;101763.09;;;16.55;85.92
29461;BME280;16428;47.836;35.106;2022-09-09T05:41:48;101777.50;;;16.56;86.38
29461;BME280;16428;47.836;35.106;2022-09-09T05:44:21;101767.66;;;16.69;86.72
29461;BME280;16428;47.836;35.106;2022-09-09T05:46:52;101770.38;;;16.69;86.87
29461;BME280;16428;47.836;35.106;2022-09-09T05:49:29;101767.16;;;16.80;85.50
29461;BME280;16428;47.836;35.106;2022-09-09T05:51:59;101771.06;;;16.93;85.74
29461;BME280;16428;47.836;35.106;2022-09-09T05:54:31;101771.13;;;16.99;85.58
29461;BME280;16428;47.836;35.106;2022-09-09T05:57:08;101775.41;;;17.08;84.71
29461;BME280;16428;47.836;35.106;2022-09-09T05:59:38;101777.97;;;17.16;85.89
29461;BME280;16428;47.836;35.106;2022-09-09T06:02:09;101770.56;;;17.25;84.27
29461;BME280;16428;47.836;35.106;2022-09-09T06:04:38;101766.50;;;17.42;83.80
29461;BME280;16428;47.836;35.106;2022-09-09T06:07:10;101761.59;;;17.52;84.39
29461;BME280;16428;47.836;35.106;2022-09-09T06:09:43;101778.75;;;17.59;84.19
29461;BME280;16428;47.836;35.106;2022-09-09T06:12:14;101786.63;;;17.69;84.67
29461;BME280;16428;47.836;35.106;2022-09-09T06:14:43;101791.06;;;17.77;84.07
29461;BME280;16428;47.836;35.106;2022-09-09T06:17:15;101787.75;;;17.81;84.22
29461;BME280;16428;47.836;35.106;2022-09-09T06:19:49;101788.47;;;17.97;83.28
29461;BME280;16428;47.836;35.106;2022-09-09T06:22:17;101791.47;;;18.08;83.09
29461;BME280;16428;47.836;35.106;2022-09-09T06:24:48;101798.00;;;18.14;80.93
29461;BME280;16428;47.836;35.106;2022-09-09T06:27:19;101803.47;;;18.20;79.16
29461;BME280;16428;47.836;35.106;2022-09-09T06:29:48;101805.78;;;18.23;77.40
29461;BME280;16428;47.836;35.106;2022-09-09T06:32:20;101813.16;;;18.36;77.72
29461;BME280;16428;47.836;35.106;2022-09-09T06:34:51;101806.03;;;18.28;76.71
29461;BME280;16428;47.836;35.106;2022-09-09T06:37:20;101805.69;;;18.45;76.25
29461;BME280;16428;47.836;35.106;2022-09-09T06:39:50;101805.50;;;18.53;76.02
29461;BME280;16428;47.836;35.106;2022-09-09T06:42:19;101798.06;;;18.68;75.36
29461;BME280;16428;47.836;35.106;2022-09-09T06:45:00;101808.81;;;18.89;74.33
29461;BME280;16428;47.836;35.106;2022-09-09T06:47:29;101806.31;;;19.01;73.41
29461;BME280;16428;47.836;35.106;2022-09-09T06:50:07;101803.19;;;19.11;72.74
29461;BME280;16428;47.836;35.106;2022-09-09T06:52:40;101812.66;;;19.21;72.16
29461;BME280;16428;47.836;35.106;2022-09-09T06:55:12;101816.00;;;19.30;72.33
29461;BME280;16428;47.836;35.106;2022-09-09T06:57:41;101811.44;;;19.37;72.67
29461;BME280;16428;47.836;35.106;2022-09-09T07:00:13;101813.72;;;19.33;71.22
29461;BME280;16428;47.836;35.106;2022-09-09T07:02:44;101814.97;;;19.44;72.60
29461;BME280;16428;47.836;35.106;2022-09-09T07:05:14;101814.59;;;19.60;71.28
29461;BME280;16428;47.836;35.106;2022-09-09T07:07:45;101807.28;;;19.67;71.83
29461;BME280;16428;47.836;35.106;2022-09-09T07:10:14;101811.03;;;19.60;70.69
29461;BME280;16428;47.836;35.106;2022-09-09T07:12:51;101816.06;;;19.83;71.05
29461;BME280;16428;47.836;35.106;2022-09-09T07:15:19;101814.34;;;20.08;71.74
29461;BME280;16428;47.836;35.106;2022-09-09T07:17:53;101814.72;;;20.18;71.09
29461;BME280;16428;47.836;35.106;2022-09-09T07:20:33;101814.25;;;20.48;70.85
29461;BME280;16428;47.836;35.106;2022-09-09T07:23:04;101816.31;;;20.59;70.26
29461;BME280;16428;47.836;35.106;2022-09-09T07:25:35;101821.13;;;20.63;69.33
29461;BME280;16428;47.836;35.106;2022-09-09T07:28:03;101819.63;;;20.74;69.21
29461;BME280;16428;47.836;35.106;2022-09-09T07:30:36;101819.19;;;20.77;69.11
29461;BME280;16428;47.836;35.106;2022-09-09T07:33:04;101819.97;;;20.84;67.08
29461;BME280;16428;47.836;35.106;2022-09-09T07:35:32;101817.44;;;20.89;67.41
29461;BME280;16428;47.836;35.106;2022-09-09T07:38:01;101812.25;;;21.13;67.80
29461;BME280;16428;47.836;35.106;2022-09-09T07:40:43;101811.97;;;20.89;67.87
29461;BME280;16428;47.836;35.106;2022-09-09T07:43:13;101811.81;;;21.16;67.14
29461;BME280;16428;47.836;35.106;2022-09-09T07:45:44;101809.63;;;21.31;66.50
29461;BME280;16428;47.836;35.106;2022-09-09T07:48:20;101813.69;;;21.22;67.55
29461;BME280;16428;47.836;35.106;2022-09-09T07:50:52;101810.41;;;21.06;64.46
29461;BME280;16428;47.836;35.106;2022-09-09T07:53:26;101814.75;;;21.21;64.70
29461;BME280;16428;47.836;35.106;2022-09-09T07:56:10;101808.75;;;21.37;65.34
29461;BME280;16428;47.836;35.106;2022-09-09T07:58:41;101806.34;;;21.47;63.47
29461;BME280;16428;47.836;35.106;2022-09-09T08:01:16;101808.69;;;21.44;63.34
29461;BME280;16428;47.836;35.106;2022-09-09T08:03:56;101809.53;;;21.44;63.58
29461;BME280;16428;47.836;35.106;2022-09-09T08:06:32;101811.59;;;21.49;64.05
29461;BME280;16428;47.836;35.106;2022-09-09T08:09:04;101811.81;;;21.47;64.71
29461;BME280;16428;47.836;35.106;2022-09-09T08:11:35;101814.72;;;21.77;63.62
29461;BME280;16428;47.836;35.106;2022-09-09T08:25:11;101792.66;;;21.97;62.01
29461;BME280;16428;47.836;35.106;2022-09-09T08:27:43;101790.88;;;21.84;62.94
29461;BME280;16428;47.836;35.106;2022-09-09T08:30:14;101785.06;;;21.99;64.17
29461;BME280;16428;47.836;35.106;2022-09-09T08:32:57;101785.38;;;22.09;60.91
29461;BME280;16428;47.836;35.106;2022-09-09T08:51:57;101776.88;;;22.17;61.09
29461;BME280;16428;47.836;35.106;2022-09-09T08:54:33;101764.41;;;22.03;60.42
29461;BME280;16428;47.836;35.106;2022-09-09T08:57:25;101773.06;;;22.18;60.58
29461;BME280;16428;47.836;35.106;2022-09-09T08:59:58;101769.19;;;22.07;60.29
29461;BME280;16428;47.836;35.106;2022-09-09T09:02:48;101770.63;;;22.46;59.43
29461;BME280;16428;47.836;35.106;2022-09-09T09:05:59;101763.28;;;22.77;58.67
29461;BME280;16428;47.836;35.106;2022-09-09T09:11:09;101755.34;;;23.29;57.00
29461;BME280;16428;47.836;35.106;2022-09-09T09:14:00;101761.63;;;23.18;57.04
29461;BME280;16428;47.836;35.106;2022-09-09T09:17:12;101766.78;;;22.84;56.14
29461;BME280;16428;47.836;35.106;2022-09-09T09:19:45;101764.59;;;23.04;56.30
29461;BME280;16428;47.836;35.106;2022-09-09T09:22:39;101756.88;;;23.25;55.32
29461;BME280;16428;47.836;35.106;2022-09-09T09:25:22;101774.78;;;23.39;54.91
29461;BME280;16428;47.836;35.106;2022-09-09T09:28:17;101764.16;;;23.42;55.15
29461;BME280;16428;47.836;35.106;2022-09-09T09:31:12;101763.66;;;23.22;54.57
29461;BME280;16428;47.836;35.106;2022-09-09T09:33:50;101763.91;;;23.21;54.47
29461;BME280;16428;47.836;35.106;2022-09-09T09:36:34;101761.75;;;23.23;54.96
29461;BME280;16428;47.836;35.106;2022-09-09T09:39:03;101767.88;;;23.36;53.61
29461;BME280;16428;47.836;35.106;2022-09-09T09:41:54;101769.44;;;23.44;51.46
29461;BME280;16428;47.836;35.106;2022-09-09T09:44:28;101765.53;;;23.87;52.21
29461;BME280;16428;47.836;35.106;2022-09-09T09:47:22;101763.56;;;24.22;49.68
29461;BME280;16428;47.836;35.106;2022-09-09T09:49:57;101758.91;;;24.34;49.28
29461;BME280;16428;47.836;35.106;2022-09-09T09:52:32;101756.19;;;24.11;47.59
29461;BME280;16428;47.836;35.106;2022-09-09T09:55:13;101760.28;;;24.48;47.48
29461;BME280;16428;47.836;35.106;2022-09-09T09:57:45;101751.50;;;24.35;47.58
29461;BME280;16428;47.836;35.106;2022-09-09T10:00:17;101747.09;;;24.62;47.12
29461;BME280;16428;47.836;35.106;2022-09-09T10:02:54;101750.00;;;24.84;47.41
29461;BME280;16428;47.836;35.106;2022-09-09T10:05:35;101750.91;;;25.01;46.20
29461;BME280;16428;47.836;35.106;2022-09-09T10:08:27;101743.56;;;25.23;45.15
29461;BME280;16428;47.836;35.106;2022-09-09T10:11:21;101750.50;;;25.43;45.56
29461;BME280;16428;47.836;35.106;2022-09-09T10:22:51;101753.13;;;24.47;47.11
29461;BME280;16428;47.836;35.106;2022-09-09T10:37:52;101752.16;;;25.10;44.89
29461;BME280;16428;47.836;35.106;2022-09-09T10:43:09;101742.94;;;24.60;45.83
29461;BME280;16428;47.836;35.106;2022-09-09T10:49:07;101738.47;;;24.70;42.60
29461;BME280;16428;47.836;35.106;2022-09-09T10:57:53;101740.19;;;25.33;40.36
29461;BME280;16428;47.836;35.106;2022-09-09T11:01:29;101746.28;;;25.35;41.14
29461;BME280;16428;47.836;35.106;2022-09-09T11:03:38;101728.72;;;25.08;40.72
29461;BME280;16428;47.836;35.106;2022-09-09T11:06:21;101724.22;;;24.57;42.88
29461;BME280;16428;47.836;35.106;2022-09-09T11:08:53;101736.41;;;24.49;42.51
29461;BME280;16428;47.836;35.106;2022-09-09T11:11:54;101736.91;;;24.46;42.63
29461;BME280;16428;47.836;35.106;2022-09-09T11:14:54;101736.56;;;24.42;43.57
29461;BME280;16428;47.836;35.106;2022-09-09T11:18:00;101737.78;;;24.63;42.96
29461;BME280;16428;47.836;35.106;2022-09-09T11:20:34;101739.41;;;24.76;41.43
29461;BME280;16428;47.836;35.106;2022-09-09T11:26:32;101734.72;;;25.21;39.70
29461;BME280;16428;47.836;35.106;2022-09-09T11:35:01;101721.81;;;25.72;37.50
29461;BME280;16428;47.836;35.106;2022-09-09T11:38:05;101707.31;;;25.99;37.10
29461;BME280;16428;47.836;35.106;2022-09-09T11:40:41;101702.94;;;26.03;36.56
29461;BME280;16428;47.836;35.106;2022-09-09T11:44:08;101709.09;;;25.88;36.43
29461;BME280;16428;47.836;35.106;2022-09-09T11:46:08;101708.31;;;26.14;36.23
29461;BME280;16428;47.836;35.106;2022-09-09T11:48:59;101708.22;;;26.26;36.93
29461;BME280;16428;47.836;35.106;2022-09-09T11:51:33;101698.13;;;26.58;38.25
29461;BME280;16428;47.836;35.106;2022-09-09T11:54:48;101699.78;;;26.86;37.74
29461;BME280;16428;47.836;35.106;2022-09-09T11:57:36;101694.97;;;26.99;37.14
29461;BME280;16428;47.836;35.106;2022-09-09T12:00:27;101695.97;;;26.92;37.00
29461;BME280;16428;47.836;35.106;2022-09-09T12:03:47;101698.69;;;27.14;36.26
29461;BME280;16428;47.836;35.106;2022-09-09T12:10:33;101694.97;;;26.72;37.28
29461;BME280;16428;47.836;35.106;2022-09-09T12:12:39;101683.94;;;26.72;36.84
29461;BME280;16428;47.836;35.106;2022-09-09T12:15:27;101697.00;;;27.13;38.67
29461;BME280;16428;47.836;35.106;2022-09-09T12:17:59;101689.97;;;26.95;38.19
29461;BME280;16428;47.836;35.106;2022-09-09T12:20:39;101690.22;;;27.26;37.71
29461;BME280;16428;47.836;35.106;2022-09-09T12:32:25;101697.56;;;27.94;35.55
29461;BME280;16428;47.836;35.106;2022-09-09T12:40:24;101689.94;;;27.27;36.63
29461;BME280;16428;47.836;35.106;2022-09-09T12:42:56;101693.47;;;27.18;35.89
29461;BME280;16428;47.836;35.106;2022-09-09T12:45:38;101684.28;;;27.07;36.92
29461;BME280;16428;47.836;35.106;2022-09-09T12:48:14;101686.84;;;26.87;36.49
29461;BME280;16428;47.836;35.106;2022-09-09T12:50:52;101692.88;;;26.84;38.23
29461;BME280;16428;47.836;35.106;2022-09-09T12:53:36;101694.72;;;27.05;37.41
29461;BME280;16428;47.836;35.106;2022-09-09T12:56:08;101694.69;;;27.32;35.08
29461;BME280;16428;47.836;35.106;2022-09-09T12:58:38;101693.66;;;27.43;34.79
29461;BME280;16428;47.836;35.106;2022-09-09T13:01:24;101702.50;;;27.87;34.64
29461;BME280;16428;47.836;35.106;2022-09-09T13:04:23;101690.00;;;28.32;33.33
29461;BME280;16428;47.836;35.106;2022-09-09T13:07:11;101697.22;;;28.38;32.59
29461;BME280;16428;47.836;35.106;2022-09-09T13:09:40;101693.38;;;28.64;33.16
29461;BME280;16428;47.836;35.106;2022-09-09T13:12:23;101694.47;;;28.53;33.95
29461;BME280;16428;47.836;35.106;2022-09-09T13:14:58;101701.59;;;28.29;35.13
29461;BME280;16428;47.836;35.106;2022-09-09T13:17:34;101700.63;;;27.56;34.40
29461;BME280;16428;47.836;35.106;2022-09-09T13:20:02;101694.00;;;27.15;34.05
29461;BME280;16428;47.836;35.106;2022-09-09T13:22:37;101695.47;;;26.69;35.23
29461;BME280;16428;47.836;35.106;2022-09-09T13:25:32;101703.91;;;26.57;35.80
29461;BME280;16428;47.836;35.106;2022-09-09T13:28:26;101697.63;;;26.18;37.52
29461;BME280;16428;47.836;35.106;2022-09-09T13:31:19;101705.88;;;25.74;38.11
29461;BME280;16428;47.836;35.106;2022-09-09T13:33:51;101710.56;;;25.57;38.56
29461;BME280;16428;47.836;35.106;2022-09-09T13:36:30;101709.00;;;25.44;40.15
29461;BME280;16428;47.836;35.106;2022-09-09T13:39:00;101707.22;;;25.38;39.71
29461;BME280;16428;47.836;35.106;2022-09-09T13:41:45;101700.50;;;25.29;39.52
29461;BME280;16428;47.836;35.106;2022-09-09T13:44:38;101706.94;;;25.18;39.96
29461;BME280;16428;47.836;35.106;2022-09-09T13:47:19;101713.31;;;24.90;40.77
29461;BME280;16428;47.836;35.106;2022-09-09T13:49:53;101709.56;;;24.96;41.03
29461;BME280;16428;47.836;35.106;2022-09-09T13:52:30;101707.84;;;24.78;42.01
29461;BME280;16428;47.836;35.106;2022-09-09T13:54:59;101706.94;;;24.73;41.16
29461;BME280;16428;47.836;35.106;2022-09-09T13:57:33;101710.19;;;24.70;41.89
29461;BME280;16428;47.836;35.106;2022-09-09T14:00:10;101703.31;;;24.56;41.91
29461;BME280;16428;47.836;35.106;2022-09-09T14:02:41;101702.31;;;24.62;41.84
29461;BME280;16428;47.836;35.106;2022-09-09T14:05:13;101703.81;;;24.52;41.83
29461;BME280;16428;47.836;35.106;2022-09-09T14:07:51;101710.25;;;24.46;42.75
29461;BME280;16428;47.836;35.106;2022-09-09T14:10:26;101714.09;;;24.45;43.47
29461;BME280;16428;47.836;35.106;2022-09-09T14:12:57;101711.69;;;24.49;43.42
29461;BME280;16428;47.836;35.106;2022-09-09T14:15:30;101709.19;;;24.47;43.67
29461;BME280;16428;47.836;35.106;2022-09-09T14:18:03;101706.91;;;24.44;43.80
29461;BME280;16428;47.836;35.106;2022-09-09T14:20:31;101717.25;;;24.37;43.96
29461;BME280;16428;47.836;35.106;2022-09-09T14:23:11;101721.53;;;24.33;43.96
29461;BME280;16428;47.836;35.106;2022-09-09T14:25:46;101715.13;;;24.28;43.55
29461;BME280;16428;47.836;35.106;2022-09-09T14:28:15;101718.94;;;24.15;43.50
29461;BME280;16428;47.836;35.106;2022-09-09T14:30:44;101717.06;;;24.04;43.87
29461;BME280;16428;47.836;35.106;2022-09-09T14:33:15;101720.19;;;23.96;42.94
29461;BME280;16428;47.836;35.106;2022-09-09T14:35:46;101720.44;;;23.82;43.09
29461;BME280;16428;47.836;35.106;2022-09-09T14:38:21;101725.22;;;23.75;43.79
29461;BME280;16428;47.836;35.106;2022-09-09T14:40:51;101727.72;;;23.77;43.63
29461;BME280;16428;47.836;35.106;2022-09-09T14:43:23;101728.09;;;23.80;44.50
29461;BME280;16428;47.836;35.106;2022-09-09T14:45:52;101731.56;;;23.64;43.77
29461;BME280;16428;47.836;35.106;2022-09-09T14:48:35;101731.31;;;23.66;45.34
29461;BME280;16428;47.836;35.106;2022-09-09T14:51:24;101732.97;;;23.55;44.90
29461;BME280;16428;47.836;35.106;2022-09-09T14:53:57;101735.72;;;23.55;44.71
29461;BME280;16428;47.836;35.106;2022-09-09T14:56:39;101731.88;;;23.44;44.97
29461;BME280;16428;47.836;35.106;2022-09-09T14:59:08;101731.88;;;23.33;45.89
29461;BME280;16428;47.836;35.106;2022-09-09T15:01:37;101734.00;;;23.31;45.83
29461;BME280;16428;47.836;35.106;2022-09-09T15:04:06;101725.88;;;23.24;45.87
29461;BME280;16428;47.836;35.106;2022-09-09T15:06:36;101736.75;;;23.19;46.14
29461;BME280;16428;47.836;35.106;2022-09-09T15:09:06;101742.78;;;23.09;46.70
29461;BME280;16428;47.836;35.106;2022-09-09T15:11:37;101744.91;;;23.07;46.40
29461;BME280;16428;47.836;35.106;2022-09-09T15:14:08;101743.28;;;23.06;46.35
29461;BME280;16428;47.836;35.106;2022-09-09T15:16:38;101744.88;;;22.96;46.94
29461;BME280;16428;47.836;35.106;2022-09-09T15:19:16;101745.97;;;22.95;47.40
29461;BME280;16428;47.836;35.106;2022-09-09T15:21:55;101743.78;;;22.85;46.21
29461;BME280;16428;47.836;35.106;2022-09-09T15:24:24;101744.47;;;22.80;46.51
29461;BME280;16428;47.836;35.106;2022-09-09T15:26:56;101744.75;;;22.61;45.93
29461;BME280;16428;47.836;35.106;2022-09-09T15:29:25;101749.94;;;22.51;46.45
29461;BME280;16428;47.836;35.106;2022-09-09T15:31:56;101743.72;;;22.43;46.18